createdAt,value
2023-04-24T00:01:02.269Z,99557.04
2023-04-24T00:02:05.272Z,99560.81
2023-04-24T00:03:09.051Z,99556.06
2023-04-24T00:04:15.265Z,99560.52
2023-04-24T00:05:18.682Z,99552.77
2023-04-24T00:06:24.668Z,99555.44
2023-04-24T00:07:27.501Z,99551.21
2023-04-24T00:08:30.788Z,99551.48
2023-04-24T00:09:34.909Z,99554.27
2023-04-24T00:10:37.733Z,99555.36
2023-04-24T00:11:40.585Z,99546.00
2023-04-24T00:12:43.412Z,99548.92
2023-04-24T00:13:46.287Z,99547.19
2023-04-24T00:14:49.156Z,99550.23
2023-04-24T00:15:52.269Z,99544.92
2023-04-24T00:16:55.121Z,99549.27
2023-04-24T00:17:58.334Z,99548.48
2023-04-24T00:19:01.953Z,99541.85
2023-04-24T00:20:07.996Z,99542.92
2023-04-24T00:21:10.960Z,99548.83
2023-04-24T00:22:15.434Z,99544.60
2023-04-24T00:23:18.427Z,99546.98
2023-04-24T00:24:22.038Z,99545.54
2023-04-24T00:25:24.920Z,99544.58
2023-04-24T00:26:27.869Z,99547.33
2023-04-24T00:27:31.109Z,99546.08
2023-04-24T00:28:34.026Z,99551.11
2023-04-24T00:29:36.881Z,99548.19
2023-04-24T00:30:39.782Z,99542.61
2023-04-24T00:31:42.754Z,99545.27
2023-04-24T00:32:45.791Z,99540.08
2023-04-24T00:33:48.770Z,99548.23
2023-04-24T00:34:51.656Z,99549.80
2023-04-24T00:35:54.539Z,99546.18
2023-04-24T00:36:57.477Z,99551.98
2023-04-24T00:38:00.630Z,99549.42
2023-04-24T00:39:03.663Z,99546.84
2023-04-24T00:40:07.394Z,99552.30
2023-04-24T00:41:10.486Z,99547.11
2023-04-24T00:42:13.898Z,99556.89
2023-04-24T00:43:18.391Z,99551.65
2023-04-24T00:44:21.418Z,99546.63
2023-04-24T00:45:24.413Z,99546.84
2023-04-24T00:46:27.434Z,99549.89
2023-04-24T00:47:31.279Z,99548.56
2023-04-24T00:48:35.358Z,99550.80
2023-04-24T00:49:38.221Z,99553.32
2023-04-24T00:50:41.620Z,99546.84
2023-04-24T00:51:46.726Z,99545.23
2023-04-24T00:52:50.159Z,99547.06
2023-04-24T00:53:53.210Z,99547.11
2023-04-24T00:54:56.073Z,99547.11
2023-04-24T00:55:59.171Z,99548.02
2023-04-24T00:57:04.288Z,99547.38
2023-04-24T00:58:07.295Z,99551.27
2023-04-24T00:59:10.309Z,99543.61
2023-04-24T01:00:14.679Z,99548.41
2023-04-24T01:01:22.901Z,99547.61
2023-04-24T01:02:27.704Z,99543.98
2023-04-24T01:03:32.885Z,99545.98
2023-04-24T01:04:36.856Z,99545.64
2023-04-24T01:05:41.191Z,99540.41
2023-04-24T01:06:45.231Z,99534.55
2023-04-24T01:07:50.140Z,99533.42
2023-04-24T01:08:53.080Z,99533.91
2023-04-24T01:09:56.416Z,99536.79
2023-04-24T01:10:59.545Z,99534.34
2023-04-24T01:12:02.620Z,99531.65
2023-04-24T01:13:05.533Z,99533.21
2023-04-24T01:14:12.435Z,99533.04
2023-04-24T01:15:15.395Z,99534.51
2023-04-24T01:16:22.075Z,99528.98
2023-04-24T01:17:25.093Z,99527.52
2023-04-24T01:18:28.883Z,99525.20
2023-04-24T01:19:31.909Z,99527.95
2023-04-24T01:20:35.674Z,99524.13
2023-04-24T01:21:43.742Z,99526.93
2023-04-24T01:22:46.624Z,99530.55
2023-04-24T01:23:49.527Z,99532.23
2023-04-24T01:24:55.004Z,99529.10
2023-04-24T01:25:57.928Z,99531.92
2023-04-24T01:27:02.755Z,99533.12
2023-04-24T01:28:06.053Z,99530.18
2023-04-24T01:29:09.145Z,99532.30
2023-04-24T01:30:13.143Z,99531.37
2023-04-24T01:31:16.646Z,99529.80
2023-04-24T01:32:20.059Z,99526.45
2023-04-24T01:33:23.461Z,99536.11
2023-04-24T01:34:27.099Z,99527.36
2023-04-24T01:35:30.270Z,99524.39
2023-04-24T01:36:34.173Z,99523.73
2023-04-24T01:37:38.431Z,99521.95
2023-04-24T01:38:41.714Z,99517.75
2023-04-24T01:39:45.516Z,99518.34
2023-04-24T01:40:48.508Z,99512.71
2023-04-24T01:41:51.547Z,99515.11
2023-04-24T01:42:55.853Z,99510.67
2023-04-24T01:43:59.676Z,99508.83
2023-04-24T01:45:04.516Z,99500.19
2023-04-24T01:46:07.752Z,99498.98
2023-04-24T01:47:12.638Z,99497.53
2023-04-24T01:48:15.803Z,99498.07
2023-04-24T01:49:18.882Z,99503.05
2023-04-24T01:50:21.802Z,99493.36
2023-04-24T01:51:24.728Z,99502.12
2023-04-24T01:52:28.268Z,99500.06
2023-04-24T01:53:31.155Z,99498.13
2023-04-24T01:54:34.476Z,99502.08
2023-04-24T01:55:38.554Z,99501.59
2023-04-24T01:56:43.767Z,99495.37
2023-04-24T01:57:46.917Z,99499.85
2023-04-24T01:58:51.478Z,99496.54
2023-04-24T01:59:55.368Z,99501.38
2023-04-24T02:00:59.935Z,99500.81
2023-04-24T02:02:03.718Z,99503.19
2023-04-24T02:03:07.146Z,99499.90
2023-04-24T02:04:10.362Z,99497.13
2023-04-24T02:05:13.277Z,99500.86
2023-04-24T02:06:16.124Z,99505.84
2023-04-24T02:07:18.975Z,99508.20
2023-04-24T02:08:21.814Z,99508.04
2023-04-24T02:09:26.255Z,99511.34
2023-04-24T02:10:29.150Z,99508.65
2023-04-24T02:11:32.154Z,99506.84
2023-04-24T02:12:35.070Z,99503.65
2023-04-24T02:13:38.025Z,99504.19
2023-04-24T02:14:40.904Z,99508.47
2023-04-24T02:15:43.772Z,99506.84
2023-04-24T02:16:47.148Z,99504.45
2023-04-24T02:17:50.286Z,99502.61
2023-04-24T02:18:53.183Z,99499.27
2023-04-24T02:19:56.080Z,99496.12
2023-04-24T02:20:59.228Z,99496.61
2023-04-24T02:22:02.194Z,99492.23
2023-04-24T02:23:05.143Z,99491.79
2023-04-24T02:24:08.009Z,99490.39
2023-04-24T02:25:10.944Z,99489.09
2023-04-24T02:26:13.989Z,99485.89
2023-04-24T02:27:16.984Z,99481.68
2023-04-24T02:28:20.581Z,99483.66
2023-04-24T02:29:23.867Z,99481.78
2023-04-24T02:30:26.846Z,99483.88
2023-04-24T02:31:29.790Z,99478.58
2023-04-24T02:32:32.665Z,99481.50
2023-04-24T02:33:36.502Z,99483.28
2023-04-24T02:34:39.603Z,99474.90
2023-04-24T02:35:42.447Z,99479.92
2023-04-24T02:36:45.304Z,99479.26
2023-04-24T02:37:48.199Z,99479.38
2023-04-24T02:38:51.109Z,99476.61
2023-04-24T02:39:53.985Z,99472.84
2023-04-24T02:40:57.061Z,99477.20
2023-04-24T02:41:59.894Z,99476.92
2023-04-24T02:43:02.767Z,99477.09
2023-04-24T02:44:05.963Z,99473.84
2023-04-24T02:45:09.234Z,99473.64
2023-04-24T02:46:12.495Z,99467.91
2023-04-24T02:47:15.447Z,99474.23
2023-04-24T02:48:18.406Z,99476.55
2023-04-24T02:49:21.483Z,99475.63
2023-04-24T02:50:24.320Z,99474.93
2023-04-24T02:51:27.917Z,99470.50
2023-04-24T02:52:30.880Z,99470.00
2023-04-24T02:53:33.909Z,99472.70
2023-04-24T02:54:36.938Z,99476.61
2023-04-24T02:55:40.011Z,99468.15
2023-04-24T02:56:43.524Z,99470.14
2023-04-24T02:57:46.464Z,99474.97
2023-04-24T02:58:49.624Z,99468.73
2023-04-24T02:59:52.545Z,99469.06
2023-04-24T03:00:57.013Z,99467.00
2023-04-24T03:02:00.396Z,99466.75
2023-04-24T03:03:04.050Z,99461.44
2023-04-24T03:04:07.698Z,99461.77
2023-04-24T03:05:13.014Z,99459.40
2023-04-24T03:06:16.628Z,99458.77
2023-04-24T03:07:21.833Z,99460.17
2023-04-24T03:08:24.732Z,99466.55
2023-04-24T03:09:27.595Z,99460.50
2023-04-24T03:10:30.520Z,99458.02
2023-04-24T03:11:33.479Z,99461.20
2023-04-24T03:12:37.100Z,99462.59
2023-04-24T03:13:40.020Z,99461.25
2023-04-24T03:14:42.864Z,99461.16
2023-04-24T03:15:46.175Z,99459.49
2023-04-24T03:16:49.085Z,99465.02
2023-04-24T03:17:52.643Z,99460.46
2023-04-24T03:18:56.587Z,99460.50
2023-04-24T03:20:01.360Z,99468.51
2023-04-24T03:21:05.094Z,99464.14
2023-04-24T03:22:10.109Z,99462.95
2023-04-24T03:23:13.119Z,99468.52
2023-04-24T03:24:16.784Z,99465.00
2023-04-24T03:25:19.957Z,99468.09
2023-04-24T03:26:22.947Z,99466.58
2023-04-24T03:27:36.024Z,99463.13
2023-04-24T03:28:43.668Z,99469.61
2023-04-24T03:29:46.809Z,99477.50
2023-04-24T03:30:50.209Z,99474.52
2023-04-24T03:31:53.727Z,99482.65
2023-04-24T03:32:56.914Z,99478.48
2023-04-24T03:34:02.805Z,99481.88
2023-04-24T03:35:08.227Z,99480.42
2023-04-24T03:36:12.172Z,99476.76
2023-04-24T03:37:17.511Z,99479.91
2023-04-24T03:38:25.124Z,99468.55
2023-04-24T03:39:45.270Z,99467.00
2023-04-24T03:40:48.847Z,99474.23
2023-04-24T03:42:03.486Z,99475.92
2023-04-24T03:43:15.852Z,99474.40
2023-04-24T03:44:19.022Z,99475.94
2023-04-24T03:45:22.185Z,99472.57
2023-04-24T03:46:26.184Z,99473.06
2023-04-24T03:47:31.732Z,99471.13
2023-04-24T03:48:36.690Z,99473.45
2023-04-24T03:49:39.585Z,99473.39
2023-04-24T03:50:42.447Z,99473.17
2023-04-24T03:51:46.686Z,99482.91
2023-04-24T03:52:58.986Z,99479.89
2023-04-24T03:54:10.781Z,99474.97
2023-04-24T03:55:15.763Z,99474.27
2023-04-24T03:56:21.849Z,99474.65
2023-04-24T03:57:24.772Z,99478.65
2023-04-24T03:58:38.003Z,99478.55
2023-04-24T03:59:41.653Z,99485.53
2023-04-24T04:00:56.236Z,99478.71
2023-04-24T04:02:13.763Z,99474.23
2023-04-24T04:03:17.537Z,99477.73
2023-04-24T04:04:20.786Z,99480.01
2023-04-24T04:05:23.919Z,99482.77
2023-04-24T04:06:27.578Z,99486.61
2023-04-24T04:07:34.506Z,99484.23
2023-04-24T04:08:37.569Z,99482.61
2023-04-24T04:09:40.660Z,99484.35
2023-04-24T04:10:43.684Z,99479.20
2023-04-24T04:11:46.716Z,99488.51
2023-04-24T04:12:49.634Z,99485.95
2023-04-24T04:13:52.577Z,99487.16
2023-04-24T04:14:57.218Z,99483.80
2023-04-24T04:16:00.781Z,99480.88
2023-04-24T04:17:04.071Z,99484.00
2023-04-24T04:18:07.393Z,99488.10
2023-04-24T04:19:10.774Z,99481.95
2023-04-24T04:20:14.530Z,99481.52
2023-04-24T04:21:17.750Z,99477.57
2023-04-24T04:22:20.880Z,99478.76
2023-04-24T04:23:26.944Z,99480.96
2023-04-24T04:24:41.778Z,99477.98
2023-04-24T04:25:45.418Z,99476.24
2023-04-24T04:26:48.454Z,99482.45
2023-04-24T04:28:21.025Z,99474.27
2023-04-24T04:29:25.080Z,99473.13
2023-04-24T04:30:30.461Z,99475.70
2023-04-24T04:31:39.896Z,99472.27
2023-04-24T04:32:46.554Z,99477.00
2023-04-24T04:33:49.964Z,99475.69
2023-04-24T04:34:55.102Z,99474.00
2023-04-24T04:35:58.643Z,99478.19
2023-04-24T04:37:03.121Z,99469.91
2023-04-24T04:38:38.268Z,99470.23
2023-04-24T04:39:49.072Z,99469.23
2023-04-24T04:40:58.090Z,99471.77
2023-04-24T04:42:01.621Z,99469.67
2023-04-24T04:43:09.735Z,99468.26
2023-04-24T04:44:18.385Z,99464.95
2023-04-24T04:45:21.727Z,99466.25
2023-04-24T04:46:44.044Z,99460.17
2023-04-24T04:48:10.061Z,99461.89
2023-04-24T04:49:14.242Z,99467.20
2023-04-24T04:50:17.959Z,99463.55
2023-04-24T04:51:21.638Z,99462.71
2023-04-24T04:52:26.332Z,99464.48
2023-04-24T04:53:33.804Z,99458.27
2023-04-24T04:54:36.713Z,99460.73
2023-04-24T04:55:40.033Z,99467.66
2023-04-24T04:56:51.935Z,99458.70
2023-04-24T04:57:57.124Z,99458.08
2023-04-24T04:59:00.527Z,99457.88
2023-04-24T05:00:05.884Z,99461.39
2023-04-24T05:01:17.171Z,99456.82
2023-04-24T05:02:23.329Z,99459.38
2023-04-24T05:03:26.555Z,99462.70
2023-04-24T05:04:34.741Z,99460.34
2023-04-24T05:05:41.566Z,99464.13
2023-04-24T05:06:48.225Z,99459.44
2023-04-24T05:07:51.561Z,99462.12
2023-04-24T05:08:58.294Z,99456.59
2023-04-24T05:10:11.563Z,99456.05
2023-04-24T05:11:14.532Z,99458.71
2023-04-24T05:12:17.872Z,99450.38
2023-04-24T05:13:38.395Z,99454.02
2023-04-24T05:14:45.418Z,99451.39
2023-04-24T05:15:48.602Z,99454.66
2023-04-24T05:16:52.063Z,99451.96
2023-04-24T05:17:57.999Z,99455.73
2023-04-24T05:19:01.471Z,99451.26
2023-04-24T05:20:08.663Z,99453.55
2023-04-24T05:21:11.570Z,99456.94
2023-04-24T05:22:19.693Z,99456.90
2023-04-24T05:23:25.852Z,99454.02
2023-04-24T05:24:29.902Z,99452.46
2023-04-24T05:26:02.081Z,99450.86
2023-04-24T05:27:06.488Z,99454.88
2023-04-24T05:28:12.379Z,99454.77
2023-04-24T05:29:15.717Z,99451.04
2023-04-24T05:30:19.128Z,99450.14
2023-04-24T05:31:22.199Z,99447.84
2023-04-24T05:32:26.919Z,99450.39
2023-04-24T05:33:31.863Z,99449.72
2023-04-24T05:34:34.703Z,99448.50
2023-04-24T05:35:37.678Z,99447.46
2023-04-24T05:36:41.006Z,99443.95
2023-04-24T05:37:43.906Z,99447.23
2023-04-24T05:38:47.060Z,99446.23
2023-04-24T05:39:50.081Z,99447.89
2023-04-24T05:40:52.931Z,99448.64
2023-04-24T05:41:59.193Z,99443.45
2023-04-24T05:43:02.185Z,99446.89
2023-04-24T05:44:05.216Z,99445.80
2023-04-24T05:45:08.743Z,99449.92
2023-04-24T05:46:13.009Z,99442.12
2023-04-24T05:47:16.358Z,99445.57
2023-04-24T05:48:19.558Z,99444.84
2023-04-24T05:49:22.740Z,99448.45
2023-04-24T05:50:25.817Z,99450.01
2023-04-24T05:51:28.778Z,99455.79
2023-04-24T05:52:31.633Z,99450.95
2023-04-24T05:53:35.200Z,99448.11
2023-04-24T05:54:38.218Z,99444.86
2023-04-24T05:55:41.600Z,99444.19
2023-04-24T05:56:44.563Z,99444.52
2023-04-24T05:57:50.274Z,99446.08
2023-04-24T05:58:53.134Z,99442.99
2023-04-24T05:59:56.675Z,99442.95
2023-04-24T06:01:01.931Z,99442.80
2023-04-24T06:02:05.494Z,99444.48
2023-04-24T06:03:08.930Z,99447.75
2023-04-24T06:04:15.250Z,99441.99
2023-04-24T06:05:18.709Z,99448.77
2023-04-24T06:06:21.955Z,99439.65
2023-04-24T06:07:24.985Z,99436.95
2023-04-24T06:08:28.001Z,99436.52
2023-04-24T06:09:31.018Z,99436.85
2023-04-24T06:10:34.053Z,99435.98
2023-04-24T06:11:37.475Z,99432.91
2023-04-24T06:12:40.740Z,99435.48
2023-04-24T06:13:48.018Z,99437.95
2023-04-24T06:15:10.007Z,99436.30
2023-04-24T06:16:28.937Z,99433.43
2023-04-24T06:17:36.263Z,99438.05
2023-04-24T06:18:39.179Z,99435.13
2023-04-24T06:19:42.455Z,99437.83
2023-04-24T06:20:46.935Z,99434.60
2023-04-24T06:21:49.849Z,99436.04
2023-04-24T06:22:52.840Z,99435.15
2023-04-24T06:23:57.121Z,99430.83
2023-04-24T06:25:01.702Z,99431.81
2023-04-24T06:26:05.198Z,99427.51
2023-04-24T06:27:08.885Z,99428.81
2023-04-24T06:28:11.757Z,99428.55
2023-04-24T06:29:14.799Z,99428.27
2023-04-24T06:30:17.654Z,99423.91
2023-04-24T06:31:21.721Z,99420.67
2023-04-24T06:32:25.551Z,99423.70
2023-04-24T06:33:28.851Z,99419.01
2023-04-24T06:34:32.113Z,99419.94
2023-04-24T06:35:34.985Z,99420.52
2023-04-24T06:36:38.238Z,99417.88
2023-04-24T06:37:43.976Z,99423.58
2023-04-24T06:38:47.086Z,99414.84
2023-04-24T06:39:49.930Z,99419.77
2023-04-24T06:40:52.920Z,99416.75
2023-04-24T06:41:56.141Z,99416.38
2023-04-24T06:43:01.194Z,99418.37
2023-04-24T06:44:04.196Z,99411.30
2023-04-24T06:45:07.396Z,99412.24
2023-04-24T06:46:10.908Z,99414.32
2023-04-24T06:47:14.814Z,99413.45
2023-04-24T06:48:17.863Z,99415.37
2023-04-24T06:49:21.212Z,99414.19
2023-04-24T06:50:24.032Z,99411.33
2023-04-24T06:51:27.755Z,99411.63
2023-04-24T06:52:33.899Z,99416.54
2023-04-24T06:53:36.791Z,99414.80
2023-04-24T06:54:39.741Z,99413.54
2023-04-24T06:55:44.300Z,99417.85
2023-04-24T06:56:48.883Z,99413.49
2023-04-24T06:57:51.762Z,99415.72
2023-04-24T06:58:54.542Z,99418.55
2023-04-24T06:59:57.513Z,99419.17
2023-04-24T07:01:00.437Z,99417.88
2023-04-24T07:02:04.373Z,99419.35
2023-04-24T07:03:07.442Z,99418.42
2023-04-24T07:04:10.913Z,99420.20
2023-04-24T07:05:14.050Z,99416.55
2023-04-24T07:06:19.565Z,99418.10
2023-04-24T07:07:24.976Z,99421.42
2023-04-24T07:08:29.288Z,99423.02
2023-04-24T07:09:32.154Z,99420.52
2023-04-24T07:10:36.683Z,99422.42
2023-04-24T07:11:41.786Z,99420.95
2023-04-24T07:12:44.618Z,99419.98
2023-04-24T07:13:47.503Z,99420.22
2023-04-24T07:14:51.902Z,99421.40
2023-04-24T07:15:57.272Z,99417.80
2023-04-24T07:17:00.191Z,99417.83
2023-04-24T07:18:05.455Z,99419.48
2023-04-24T07:19:08.891Z,99417.69
2023-04-24T07:20:12.769Z,99419.71
2023-04-24T07:21:15.755Z,99419.83
2023-04-24T07:22:18.782Z,99417.77
2023-04-24T07:23:21.760Z,99417.04
2023-04-24T07:24:26.764Z,99417.77
2023-04-24T07:25:29.907Z,99424.30
2023-04-24T07:26:32.992Z,99419.15
2023-04-24T07:27:37.380Z,99421.30
2023-04-24T07:28:40.635Z,99425.10
2023-04-24T07:29:44.074Z,99425.44
2023-04-24T07:30:47.346Z,99423.40
2023-04-24T07:31:50.279Z,99425.27
2023-04-24T07:32:53.155Z,99424.55
2023-04-24T07:33:58.969Z,99424.12
2023-04-24T07:35:01.846Z,99422.69
2023-04-24T07:36:05.311Z,99418.48
2023-04-24T07:37:08.186Z,99421.35
2023-04-24T07:38:11.183Z,99419.29
2023-04-24T07:39:14.337Z,99421.23
2023-04-24T07:40:17.284Z,99425.74
2023-04-24T07:41:20.208Z,99427.17
2023-04-24T07:42:23.114Z,99427.83
2023-04-24T07:43:26.025Z,99423.64
2023-04-24T07:44:28.871Z,99419.26
2023-04-24T07:45:32.305Z,99423.89
2023-04-24T07:46:35.286Z,99419.23
2023-04-24T07:47:39.379Z,99418.92
2023-04-24T07:48:42.277Z,99416.79
2023-04-24T07:49:45.408Z,99414.53
2023-04-24T07:50:48.790Z,99417.05
2023-04-24T07:51:51.751Z,99410.16
2023-04-24T07:52:54.621Z,99411.46
2023-04-24T07:53:57.558Z,99412.56
2023-04-24T07:55:01.572Z,99411.82
2023-04-24T07:56:04.513Z,99412.30
2023-04-24T07:57:09.215Z,99408.95
2023-04-24T07:58:12.217Z,99409.89
2023-04-24T07:59:15.087Z,99407.73
2023-04-24T08:00:18.574Z,99406.06
2023-04-24T08:01:21.610Z,99407.01
2023-04-24T08:02:27.864Z,99406.13
2023-04-24T08:03:31.261Z,99404.65
2023-04-24T08:04:34.856Z,99406.70
2023-04-24T08:05:40.237Z,99403.39
2023-04-24T08:06:43.906Z,99401.89
2023-04-24T08:07:49.783Z,99399.33
2023-04-24T08:08:52.751Z,99404.26
2023-04-24T08:09:55.821Z,99401.67
2023-04-24T08:10:58.701Z,99404.55
2023-04-24T08:12:02.363Z,99404.87
2023-04-24T08:13:05.225Z,99403.58
2023-04-24T08:14:08.257Z,99403.27
2023-04-24T08:15:11.421Z,99405.91
2023-04-24T08:16:14.359Z,99405.36
2023-04-24T08:17:18.388Z,99406.52
2023-04-24T08:18:21.292Z,99406.92
2023-04-24T08:19:24.350Z,99404.37
2023-04-24T08:20:27.362Z,99405.19
2023-04-24T08:21:30.266Z,99403.05
2023-04-24T08:22:33.395Z,99408.34
2023-04-24T08:23:36.270Z,99406.23
2023-04-24T08:24:39.123Z,99404.92
2023-04-24T08:25:41.996Z,99410.49
2023-04-24T08:26:44.953Z,99410.38
2023-04-24T08:27:47.765Z,99409.86
2023-04-24T08:28:50.620Z,99412.84
2023-04-24T08:29:56.277Z,99408.03
2023-04-24T08:30:59.135Z,99411.30
2023-04-24T08:32:02.573Z,99409.17
2023-04-24T08:33:05.908Z,99409.48
2023-04-24T08:34:11.678Z,99410.45
2023-04-24T08:35:14.645Z,99412.01
2023-04-24T08:36:17.627Z,99414.77
2023-04-24T08:37:21.170Z,99413.09
2023-04-24T08:38:24.498Z,99412.95
2023-04-24T08:39:27.385Z,99411.53
2023-04-24T08:40:31.336Z,99408.29
2023-04-24T08:41:35.785Z,99415.07
2023-04-24T08:42:38.690Z,99413.08
2023-04-24T08:43:42.804Z,99416.53
2023-04-24T08:44:45.964Z,99419.39
2023-04-24T08:45:48.902Z,99418.16
2023-04-24T08:46:52.666Z,99415.95
2023-04-24T08:47:56.238Z,99415.56
2023-04-24T08:48:59.710Z,99416.14
2023-04-24T08:50:06.842Z,99417.30
2023-04-24T08:51:10.473Z,99413.45
2023-04-24T08:52:14.182Z,99413.40
2023-04-24T08:53:17.144Z,99412.00
2023-04-24T08:54:20.458Z,99415.37
2023-04-24T08:55:25.914Z,99411.90
2023-04-24T08:56:29.783Z,99410.11
2023-04-24T08:57:33.964Z,99408.27
2023-04-24T08:58:37.011Z,99408.60
2023-04-24T08:59:40.843Z,99410.45
2023-04-24T09:00:47.994Z,99409.60
2023-04-24T09:01:52.815Z,99412.40
2023-04-24T09:02:57.092Z,99408.45
2023-04-24T09:04:04.771Z,99411.00
2023-04-24T09:05:08.799Z,99411.52
2023-04-24T09:06:12.576Z,99406.63
2023-04-24T09:07:17.853Z,99407.77
2023-04-24T09:08:21.252Z,99412.80
2023-04-24T09:09:25.771Z,99417.20
2023-04-24T09:10:31.646Z,99405.48
2023-04-24T09:11:35.476Z,99405.90
2023-04-24T09:12:38.624Z,99403.52
2023-04-24T09:13:42.410Z,99401.77
2023-04-24T09:14:46.653Z,99401.84
2023-04-24T09:15:49.919Z,99404.77
2023-04-24T09:16:52.900Z,99403.39
2023-04-24T09:17:56.458Z,99404.56
2023-04-24T09:18:59.401Z,99404.75
2023-04-24T09:20:02.807Z,99404.85
2023-04-24T09:21:09.439Z,99400.64
2023-04-24T09:22:13.145Z,99395.80
2023-04-24T09:23:19.019Z,99397.52
2023-04-24T09:24:26.042Z,99392.05
2023-04-24T09:25:34.669Z,99391.28
2023-04-24T09:26:38.135Z,99388.34
2023-04-24T09:27:46.278Z,99391.20
2023-04-24T09:28:49.151Z,99386.29
2023-04-24T09:29:56.653Z,99386.16
2023-04-24T09:31:16.831Z,99387.49
2023-04-24T09:32:22.982Z,99387.52
2023-04-24T09:33:26.327Z,99381.09
2023-04-24T09:34:29.596Z,99380.70
2023-04-24T09:35:33.299Z,99375.64
2023-04-24T09:36:39.339Z,99380.23
2023-04-24T09:37:44.799Z,99378.29
2023-04-24T09:38:47.649Z,99372.58
2023-04-24T09:40:09.242Z,99371.17
2023-04-24T09:41:15.249Z,99372.33
2023-04-24T09:42:18.109Z,99367.33
2023-04-24T09:43:21.188Z,99367.20
2023-04-24T09:44:27.735Z,99368.87
2023-04-24T09:45:38.022Z,99372.49
2023-04-24T09:46:43.103Z,99370.68
2023-04-24T09:47:46.054Z,99368.17
2023-04-24T09:48:49.149Z,99373.44
2023-04-24T09:49:58.663Z,99370.46
2023-04-24T09:51:02.635Z,99371.61
2023-04-24T09:52:06.411Z,99368.65
2023-04-24T09:53:11.768Z,99370.67
2023-04-24T09:54:21.033Z,99366.48
2023-04-24T09:55:23.943Z,99365.88
2023-04-24T09:56:27.468Z,99370.00
2023-04-24T09:57:30.389Z,99366.98
2023-04-24T09:58:33.259Z,99364.50
2023-04-24T09:59:37.473Z,99362.22
2023-04-24T10:00:41.279Z,99366.40
2023-04-24T10:01:45.826Z,99362.42
2023-04-24T10:02:55.388Z,99361.93
2023-04-24T10:03:58.189Z,99363.02
2023-04-24T10:05:01.717Z,99360.19
2023-04-24T10:06:10.259Z,99357.17
2023-04-24T10:07:15.978Z,99351.75
2023-04-24T10:08:19.116Z,99352.17
2023-04-24T10:09:27.014Z,99353.31
2023-04-24T10:10:31.643Z,99353.80
2023-04-24T10:11:35.283Z,99357.14
2023-04-24T10:12:38.598Z,99350.59
2023-04-24T10:13:41.748Z,99350.35
2023-04-24T10:14:48.540Z,99353.30
2023-04-24T10:15:52.462Z,99348.39
2023-04-24T10:16:57.649Z,99345.08
2023-04-24T10:18:00.948Z,99344.86
2023-04-24T10:19:04.863Z,99343.98
2023-04-24T10:20:09.147Z,99345.39
2023-04-24T10:21:12.266Z,99341.96
2023-04-24T10:22:18.026Z,99343.35
2023-04-24T10:23:21.310Z,99342.54
2023-04-24T10:24:24.373Z,99339.08
2023-04-24T10:25:30.152Z,99337.61
2023-04-24T10:26:33.080Z,99338.18
2023-04-24T10:27:37.117Z,99338.29
2023-04-24T10:28:40.628Z,99340.77
2023-04-24T10:29:45.262Z,99336.38
2023-04-24T10:30:48.766Z,99336.17
2023-04-24T10:31:51.836Z,99335.89
2023-04-24T10:32:55.364Z,99330.79
2023-04-24T10:34:01.302Z,99338.32
2023-04-24T10:35:04.655Z,99330.40
2023-04-24T10:36:10.774Z,99331.53
2023-04-24T10:37:14.834Z,99329.68
2023-04-24T10:38:25.930Z,99328.20
2023-04-24T10:39:30.098Z,99326.91
2023-04-24T10:40:35.541Z,99326.29
2023-04-24T10:41:39.264Z,99324.11
2023-04-24T10:42:43.868Z,99324.38
2023-04-24T10:43:49.690Z,99320.85
2023-04-24T10:44:52.603Z,99318.61
2023-04-24T10:46:07.461Z,99321.53
2023-04-24T10:47:16.697Z,99321.17
2023-04-24T10:48:19.666Z,99323.85
2023-04-24T10:49:31.279Z,99320.69
2023-04-24T10:50:52.358Z,99320.44
2023-04-24T10:52:01.697Z,99319.78
2023-04-24T10:53:08.638Z,99319.77
2023-04-24T10:54:36.904Z,99320.63
2023-04-24T10:55:51.977Z,99319.90
2023-04-24T10:57:20.675Z,99314.84
2023-04-24T10:58:24.992Z,99312.96
2023-04-24T10:59:35.915Z,99309.70
2023-04-24T11:00:42.607Z,99306.05
2023-04-24T11:01:54.314Z,99307.63
2023-04-24T11:02:58.951Z,99307.84
2023-04-24T11:04:04.321Z,99307.84
2023-04-24T11:05:08.508Z,99302.29
2023-04-24T11:06:13.923Z,99297.92
2023-04-24T11:07:16.891Z,99300.27
2023-04-24T11:08:30.472Z,99300.59
2023-04-24T11:09:34.023Z,99304.59
2023-04-24T11:10:55.415Z,99302.45
2023-04-24T11:12:12.664Z,99302.13
2023-04-24T11:13:17.703Z,99294.98
2023-04-24T11:14:22.941Z,99302.83
2023-04-24T11:15:26.262Z,99298.41
2023-04-24T11:16:42.808Z,99303.42
2023-04-24T11:17:45.867Z,99303.96
2023-04-24T11:18:55.343Z,99307.34
2023-04-24T11:20:09.390Z,99304.77
2023-04-24T11:21:23.600Z,99303.02
2023-04-24T11:22:28.021Z,99301.72
2023-04-24T11:23:38.241Z,99299.00
2023-04-24T11:24:50.987Z,99298.98
2023-04-24T11:26:18.435Z,99301.83
2023-04-24T11:27:23.308Z,99297.38
2023-04-24T11:28:26.251Z,99296.15
2023-04-24T11:29:58.548Z,99297.08
2023-04-24T11:31:40.682Z,99294.05
2023-04-24T11:32:44.576Z,99288.75
2023-04-24T11:33:47.734Z,99287.20
2023-04-24T11:34:52.658Z,99285.68
2023-04-24T11:35:55.868Z,99290.36
2023-04-24T11:36:59.022Z,99292.84
2023-04-24T11:38:19.401Z,99290.14
2023-04-24T11:39:26.004Z,99293.87
2023-04-24T11:40:28.986Z,99294.52
2023-04-24T11:41:33.037Z,99291.34
2023-04-24T11:42:40.945Z,99286.66
2023-04-24T11:43:44.466Z,99282.60
2023-04-24T11:44:48.778Z,99287.15
2023-04-24T11:45:51.979Z,99282.23
2023-04-24T11:46:57.459Z,99286.45
2023-04-24T11:48:01.195Z,99282.44
2023-04-24T11:49:04.100Z,99282.55
2023-04-24T11:50:09.432Z,99283.30
2023-04-24T11:51:13.990Z,99288.95
2023-04-24T11:52:17.365Z,99286.87
2023-04-24T11:53:22.555Z,99283.27
2023-04-24T11:54:25.891Z,99284.21
2023-04-24T11:55:30.434Z,99281.61
2023-04-24T11:56:33.322Z,99278.20
2023-04-24T11:57:37.668Z,99276.00
2023-04-24T11:58:40.542Z,99272.67
2023-04-24T11:59:43.638Z,99276.42
2023-04-24T12:00:47.216Z,99274.89
2023-04-24T12:01:50.845Z,99270.76
2023-04-24T12:03:06.839Z,99269.96
2023-04-24T12:04:09.979Z,99267.17
2023-04-24T12:05:28.000Z,99262.64
2023-04-24T12:06:31.826Z,99256.63
2023-04-24T12:07:45.660Z,99258.48
2023-04-24T12:08:48.899Z,99261.05
2023-04-24T12:09:58.132Z,99254.41
2023-04-24T12:11:08.301Z,99250.58
2023-04-24T12:12:16.460Z,99250.80
2023-04-24T12:13:19.313Z,99249.15
2023-04-24T12:14:22.211Z,99244.06
2023-04-24T12:15:25.882Z,99245.58
2023-04-24T12:16:28.999Z,99246.80
2023-04-24T12:17:33.841Z,99247.88
2023-04-24T12:18:42.918Z,99248.33
2023-04-24T12:19:49.265Z,99257.66
2023-04-24T12:20:52.269Z,99251.41
2023-04-24T12:22:06.562Z,99252.56
2023-04-24T12:23:09.844Z,99248.46
2023-04-24T12:24:12.744Z,99254.91
2023-04-24T12:25:18.746Z,99253.82
2023-04-24T12:26:23.346Z,99251.55
2023-04-24T12:27:26.558Z,99248.77
2023-04-24T12:28:37.419Z,99247.93
2023-04-24T12:29:52.989Z,99249.20
2023-04-24T12:30:55.907Z,99245.16
2023-04-24T12:31:58.806Z,99241.38
2023-04-24T12:33:03.952Z,99245.08
2023-04-24T12:34:19.091Z,99244.70
2023-04-24T12:35:24.565Z,99233.23
2023-04-24T12:36:28.058Z,99234.59
2023-04-24T12:37:35.151Z,99247.88
2023-04-24T12:38:41.826Z,99253.13
2023-04-24T12:40:08.217Z,99261.48
2023-04-24T12:41:13.782Z,99279.30
2023-04-24T12:42:16.701Z,99287.44
2023-04-24T12:43:21.254Z,99291.34
2023-04-24T12:44:32.124Z,99300.38